sensor_id;sensor_type;location;lat;lon;timestamp;P1;durP1;ratioP1;P2;durP2;ratioP2
70312;SDS011;57723;51.698;5.344;2024-03-08T00:00:43;15.73;;;6.20;;
70312;SDS011;57723;51.698;5.344;2024-03-08T00:03:08;16.97;;;6.37;;
70312;SDS011;57723;51.698;5.344;2024-03-08T00:05:35;13.07;;;6.00;;
70312;SDS011;57723;51.698;5.344;2024-03-08T00:08:00;12.10;;;5.13;;
70312;SDS011;57723;51.698;5.344;2024-03-08T00:10:26;12.37;;;6.20;;
70312;SDS011;57723;51.698;5.344;2024-03-08T00:12:53;11.60;;;5.72;;
70312;SDS011;57723;51.698;5.344;2024-03-08T00:15:19;12.60;;;6.30;;
70312;SDS011;57723;51.698;5.344;2024-03-08T00:17:45;17.02;;;6.50;;
70312;SDS011;57723;51.698;5.344;2024-03-08T00:20:13;12.93;;;6.10;;
70312;SDS011;57723;51.698;5.344;2024-03-08T00:22:39;14.17;;;5.13;;
70312;SDS011;57723;51.698;5.344;2024-03-08T00:25:05;12.98;;;6.30;;
70312;SDS011;57723;51.698;5.344;2024-03-08T00:27:30;14.00;;;5.70;;
70312;SDS011;57723;51.698;5.344;2024-03-08T00:29:56;11.87;;;6.00;;
70312;SDS011;57723;51.698;5.344;2024-03-08T00:32:21;12.88;;;5.60;;
70312;SDS011;57723;51.698;5.344;2024-03-08T00:34:50;12.73;;;5.70;;
70312;SDS011;57723;51.698;5.344;2024-03-08T00:37:17;12.65;;;5.47;;
70312;SDS011;57723;51.698;5.344;2024-03-08T00:39:43;12.60;;;6.10;;
70312;SDS011;57723;51.698;5.344;2024-03-08T00:42:08;14.32;;;6.22;;
70312;SDS011;57723;51.698;5.344;2024-03-08T00:44:34;12.83;;;5.83;;
70312;SDS011;57723;51.698;5.344;2024-03-08T00:46:59;15.27;;;5.70;;
70312;SDS011;57723;51.698;5.344;2024-03-08T00:49:25;10.93;;;5.65;;
70312;SDS011;57723;51.698;5.344;2024-03-08T00:51:50;11.77;;;5.70;;
70312;SDS011;57723;51.698;5.344;2024-03-08T00:54:16;14.53;;;5.80;;
70312;SDS011;57723;51.698;5.344;2024-03-08T00:56:42;12.63;;;5.65;;
70312;SDS011;57723;51.698;5.344;2024-03-08T00:59:07;12.45;;;6.22;;
70312;SDS011;57723;51.698;5.344;2024-03-08T01:01:33;12.93;;;6.10;;
70312;SDS011;57723;51.698;5.344;2024-03-08T01:03:58;13.15;;;5.53;;
70312;SDS011;57723;51.698;5.344;2024-03-08T01:06:24;11.33;;;5.40;;
70312;SDS011;57723;51.698;5.344;2024-03-08T01:08:49;13.52;;;5.93;;
70312;SDS011;57723;51.698;5.344;2024-03-08T01:11:17;12.33;;;5.27;;
70312;SDS011;57723;51.698;5.344;2024-03-08T01:13:46;11.07;;;5.13;;
70312;SDS011;57723;51.698;5.344;2024-03-08T01:16:12;12.05;;;5.40;;
70312;SDS011;57723;51.698;5.344;2024-03-08T01:18:38;10.43;;;5.30;;
70312;SDS011;57723;51.698;5.344;2024-03-08T01:21:06;15.07;;;5.57;;
70312;SDS011;57723;51.698;5.344;2024-03-08T01:23:31;10.80;;;5.32;;
70312;SDS011;57723;51.698;5.344;2024-03-08T01:25:57;10.03;;;5.27;;
70312;SDS011;57723;51.698;5.344;2024-03-08T01:28:25;11.17;;;5.27;;
70312;SDS011;57723;51.698;5.344;2024-03-08T01:30:51;13.77;;;5.90;;
70312;SDS011;57723;51.698;5.344;2024-03-08T01:33:23;11.27;;;5.55;;
70312;SDS011;57723;51.698;5.344;2024-03-08T01:35:50;12.73;;;5.10;;
70312;SDS011;57723;51.698;5.344;2024-03-08T01:38:16;11.57;;;5.13;;
70312;SDS011;57723;51.698;5.344;2024-03-08T01:40:42;11.40;;;4.78;;
70312;SDS011;57723;51.698;5.344;2024-03-08T01:43:27;10.18;;;4.97;;
70312;SDS011;57723;51.698;5.344;2024-03-08T01:45:57;11.48;;;5.05;;
70312;SDS011;57723;51.698;5.344;2024-03-08T01:48:24;11.50;;;4.90;;
70312;SDS011;57723;51.698;5.344;2024-03-08T01:50:50;11.68;;;5.10;;
70312;SDS011;57723;51.698;5.344;2024-03-08T01:53:15;9.18;;;4.85;;
70312;SDS011;57723;51.698;5.344;2024-03-08T01:55:42;12.95;;;5.32;;
70312;SDS011;57723;51.698;5.344;2024-03-08T01:58:09;10.93;;;5.03;;
70312;SDS011;57723;51.698;5.344;2024-03-08T02:00:36;10.02;;;5.15;;
70312;SDS011;57723;51.698;5.344;2024-03-08T02:03:06;10.10;;;4.88;;
70312;SDS011;57723;51.698;5.344;2024-03-08T02:05:34;10.95;;;4.88;;
70312;SDS011;57723;51.698;5.344;2024-03-08T02:08:00;11.75;;;5.18;;
70312;SDS011;57723;51.698;5.344;2024-03-08T02:10:26;12.77;;;5.30;;
70312;SDS011;57723;51.698;5.344;2024-03-08T02:12:52;11.20;;;5.37;;
70312;SDS011;57723;51.698;5.344;2024-03-08T02:15:17;10.88;;;5.28;;
70312;SDS011;57723;51.698;5.344;2024-03-08T02:17:43;11.00;;;5.27;;
70312;SDS011;57723;51.698;5.344;2024-03-08T02:20:08;8.75;;;4.97;;
70312;SDS011;57723;51.698;5.344;2024-03-08T02:22:34;9.35;;;5.22;;
70312;SDS011;57723;51.698;5.344;2024-03-08T02:25:00;9.88;;;4.63;;
70312;SDS011;57723;51.698;5.344;2024-03-08T02:27:28;11.98;;;5.18;;
70312;SDS011;57723;51.698;5.344;2024-03-08T02:29:58;10.23;;;4.95;;
70312;SDS011;57723;51.698;5.344;2024-03-08T02:32:24;10.68;;;5.15;;
70312;SDS011;57723;51.698;5.344;2024-03-08T02:34:52;9.70;;;4.90;;
70312;SDS011;57723;51.698;5.344;2024-03-08T02:37:20;10.02;;;5.20;;
70312;SDS011;57723;51.698;5.344;2024-03-08T02:39:46;10.50;;;4.93;;
70312;SDS011;57723;51.698;5.344;2024-03-08T02:42:12;10.60;;;4.70;;
70312;SDS011;57723;51.698;5.344;2024-03-08T02:44:42;11.18;;;5.00;;
70312;SDS011;57723;51.698;5.344;2024-03-08T02:47:09;8.63;;;4.95;;
70312;SDS011;57723;51.698;5.344;2024-03-08T02:49:35;10.18;;;4.47;;
70312;SDS011;57723;51.698;5.344;2024-03-08T02:52:02;9.68;;;4.85;;
70312;SDS011;57723;51.698;5.344;2024-03-08T02:54:28;9.03;;;4.77;;
70312;SDS011;57723;51.698;5.344;2024-03-08T02:56:53;9.17;;;5.20;;
70312;SDS011;57723;51.698;5.344;2024-03-08T02:59:18;11.75;;;5.25;;
70312;SDS011;57723;51.698;5.344;2024-03-08T03:01:44;8.73;;;4.70;;
70312;SDS011;57723;51.698;5.344;2024-03-08T03:04:10;10.97;;;4.90;;
70312;SDS011;57723;51.698;5.344;2024-03-08T03:06:35;10.40;;;5.20;;
70312;SDS011;57723;51.698;5.344;2024-03-08T03:09:01;9.75;;;4.88;;
70312;SDS011;57723;51.698;5.344;2024-03-08T03:11:27;9.93;;;5.05;;
70312;SDS011;57723;51.698;5.344;2024-03-08T03:13:52;12.17;;;4.60;;
70312;SDS011;57723;51.698;5.344;2024-03-08T03:16:19;8.73;;;4.50;;
70312;SDS011;57723;51.698;5.344;2024-03-08T03:18:48;9.30;;;5.37;;
70312;SDS011;57723;51.698;5.344;2024-03-08T03:21:13;9.43;;;4.72;;
70312;SDS011;57723;51.698;5.344;2024-03-08T03:23:39;9.43;;;4.57;;
70312;SDS011;57723;51.698;5.344;2024-03-08T03:26:07;9.93;;;4.30;;
70312;SDS011;57723;51.698;5.344;2024-03-08T03:28:33;10.60;;;4.43;;
70312;SDS011;57723;51.698;5.344;2024-03-08T03:30:58;7.23;;;4.43;;
70312;SDS011;57723;51.698;5.344;2024-03-08T03:33:24;9.67;;;4.57;;
70312;SDS011;57723;51.698;5.344;2024-03-08T03:35:50;9.48;;;4.65;;
70312;SDS011;57723;51.698;5.344;2024-03-08T03:38:17;7.50;;;4.50;;
70312;SDS011;57723;51.698;5.344;2024-03-08T03:40:45;9.80;;;4.70;;
70312;SDS011;57723;51.698;5.344;2024-03-08T03:43:11;8.35;;;4.22;;
70312;SDS011;57723;51.698;5.344;2024-03-08T03:45:37;9.85;;;4.50;;
70312;SDS011;57723;51.698;5.344;2024-03-08T03:48:06;8.75;;;4.45;;
70312;SDS011;57723;51.698;5.344;2024-03-08T03:50:32;8.60;;;4.65;;
70312;SDS011;57723;51.698;5.344;2024-03-08T03:53:00;10.38;;;5.10;;
70312;SDS011;57723;51.698;5.344;2024-03-08T03:55:26;8.52;;;4.60;;
70312;SDS011;57723;51.698;5.344;2024-03-08T03:57:52;9.20;;;4.68;;
70312;SDS011;57723;51.698;5.344;2024-03-08T04:00:18;9.50;;;4.30;;
70312;SDS011;57723;51.698;5.344;2024-03-08T04:02:43;8.00;;;4.13;;
70312;SDS011;57723;51.698;5.344;2024-03-08T04:05:09;9.65;;;4.68;;
70312;SDS011;57723;51.698;5.344;2024-03-08T04:07:35;9.65;;;4.75;;
70312;SDS011;57723;51.698;5.344;2024-03-08T04:10:01;7.07;;;4.37;;
70312;SDS011;57723;51.698;5.344;2024-03-08T04:12:31;7.45;;;4.15;;
70312;SDS011;57723;51.698;5.344;2024-03-08T04:14:57;9.38;;;4.57;;
70312;SDS011;57723;51.698;5.344;2024-03-08T04:17:22;8.30;;;4.67;;
70312;SDS011;57723;51.698;5.344;2024-03-08T04:19:49;8.63;;;4.78;;
70312;SDS011;57723;51.698;5.344;2024-03-08T04:22:15;8.00;;;4.53;;
70312;SDS011;57723;51.698;5.344;2024-03-08T04:24:41;8.35;;;4.28;;
70312;SDS011;57723;51.698;5.344;2024-03-08T04:27:07;7.50;;;4.23;;
70312;SDS011;57723;51.698;5.344;2024-03-08T04:29:33;8.88;;;4.50;;
70312;SDS011;57723;51.698;5.344;2024-03-08T04:32:04;8.35;;;4.50;;
70312;SDS011;57723;51.698;5.344;2024-03-08T04:34:31;7.83;;;4.33;;
70312;SDS011;57723;51.698;5.344;2024-03-08T04:36:57;9.43;;;4.63;;
70312;SDS011;57723;51.698;5.344;2024-03-08T04:39:26;8.55;;;4.30;;
70312;SDS011;57723;51.698;5.344;2024-03-08T04:41:54;7.15;;;4.30;;
70312;SDS011;57723;51.698;5.344;2024-03-08T04:44:21;8.50;;;4.40;;
70312;SDS011;57723;51.698;5.344;2024-03-08T04:46:48;8.60;;;4.53;;
70312;SDS011;57723;51.698;5.344;2024-03-08T04:49:13;8.17;;;4.30;;
70312;SDS011;57723;51.698;5.344;2024-03-08T04:51:38;8.77;;;4.90;;
70312;SDS011;57723;51.698;5.344;2024-03-08T04:54:04;10.23;;;4.40;;
70312;SDS011;57723;51.698;5.344;2024-03-08T04:56:37;9.82;;;4.43;;
70312;SDS011;57723;51.698;5.344;2024-03-08T04:59:04;8.00;;;4.50;;
70312;SDS011;57723;51.698;5.344;2024-03-08T05:01:33;9.30;;;4.25;;
70312;SDS011;57723;51.698;5.344;2024-03-08T05:03:59;7.60;;;4.53;;
70312;SDS011;57723;51.698;5.344;2024-03-08T05:06:24;7.50;;;4.13;;
70312;SDS011;57723;51.698;5.344;2024-03-08T05:08:50;7.97;;;4.20;;
70312;SDS011;57723;51.698;5.344;2024-03-08T05:11:15;8.47;;;4.47;;
70312;SDS011;57723;51.698;5.344;2024-03-08T05:13:41;9.73;;;4.00;;
70312;SDS011;57723;51.698;5.344;2024-03-08T05:16:06;7.50;;;4.05;;
70312;SDS011;57723;51.698;5.344;2024-03-08T05:18:33;7.10;;;3.60;;
70312;SDS011;57723;51.698;5.344;2024-03-08T05:21:01;11.23;;;4.65;;
70312;SDS011;57723;51.698;5.344;2024-03-08T05:23:29;8.27;;;3.88;;
70312;SDS011;57723;51.698;5.344;2024-03-08T05:25:55;8.75;;;4.40;;
70312;SDS011;57723;51.698;5.344;2024-03-08T05:28:20;7.47;;;3.87;;
70312;SDS011;57723;51.698;5.344;2024-03-08T05:30:46;7.53;;;4.20;;
70312;SDS011;57723;51.698;5.344;2024-03-08T05:33:14;7.43;;;4.27;;
70312;SDS011;57723;51.698;5.344;2024-03-08T05:35:42;10.52;;;4.43;;
70312;SDS011;57723;51.698;5.344;2024-03-08T05:38:08;6.63;;;4.05;;
70312;SDS011;57723;51.698;5.344;2024-03-08T05:40:34;8.57;;;4.10;;
70312;SDS011;57723;51.698;5.344;2024-03-08T05:42:59;7.60;;;4.73;;
70312;SDS011;57723;51.698;5.344;2024-03-08T05:45:29;7.70;;;3.88;;
70312;SDS011;57723;51.698;5.344;2024-03-08T05:47:54;7.10;;;4.32;;
70312;SDS011;57723;51.698;5.344;2024-03-08T05:50:23;7.53;;;4.30;;
70312;SDS011;57723;51.698;5.344;2024-03-08T05:52:49;9.88;;;4.35;;
70312;SDS011;57723;51.698;5.344;2024-03-08T05:55:14;8.47;;;4.27;;
70312;SDS011;57723;51.698;5.344;2024-03-08T05:57:43;9.45;;;4.10;;
70312;SDS011;57723;51.698;5.344;2024-03-08T06:00:14;8.45;;;4.43;;
70312;SDS011;57723;51.698;5.344;2024-03-08T06:02:40;8.60;;;4.20;;
70312;SDS011;57723;51.698;5.344;2024-03-08T06:05:11;7.73;;;4.27;;
70312;SDS011;57723;51.698;5.344;2024-03-08T06:07:42;6.82;;;4.50;;
70312;SDS011;57723;51.698;5.344;2024-03-08T06:10:09;7.28;;;4.60;;
70312;SDS011;57723;51.698;5.344;2024-03-08T06:12:36;7.23;;;4.43;;
70312;SDS011;57723;51.698;5.344;2024-03-08T06:15:08;10.48;;;4.75;;
70312;SDS011;57723;51.698;5.344;2024-03-08T06:17:35;9.57;;;5.00;;
70312;SDS011;57723;51.698;5.344;2024-03-08T06:20:01;10.07;;;6.43;;
70312;SDS011;57723;51.698;5.344;2024-03-08T06:22:28;9.27;;;6.18;;
70312;SDS011;57723;51.698;5.344;2024-03-08T06:24:55;14.57;;;6.10;;
70312;SDS011;57723;51.698;5.344;2024-03-08T06:27:21;7.95;;;4.20;;
70312;SDS011;57723;51.698;5.344;2024-03-08T06:29:46;11.13;;;4.17;;
70312;SDS011;57723;51.698;5.344;2024-03-08T06:32:18;13.77;;;4.25;;
70312;SDS011;57723;51.698;5.344;2024-03-08T06:34:44;8.23;;;3.90;;
70312;SDS011;57723;51.698;5.344;2024-03-08T06:37:09;7.05;;;4.40;;
70312;SDS011;57723;51.698;5.344;2024-03-08T06:39:38;7.63;;;4.20;;
70312;SDS011;57723;51.698;5.344;2024-03-08T06:42:04;9.82;;;4.03;;
70312;SDS011;57723;51.698;5.344;2024-03-08T06:44:33;11.52;;;4.05;;
70312;SDS011;57723;51.698;5.344;2024-03-08T06:46:59;7.80;;;4.05;;
70312;SDS011;57723;51.698;5.344;2024-03-08T06:49:25;6.50;;;3.93;;
70312;SDS011;57723;51.698;5.344;2024-03-08T06:51:51;7.35;;;3.80;;
70312;SDS011;57723;51.698;5.344;2024-03-08T06:54:21;9.85;;;4.03;;
70312;SDS011;57723;51.698;5.344;2024-03-08T06:56:55;8.75;;;4.47;;
70312;SDS011;57723;51.698;5.344;2024-03-08T06:59:21;7.65;;;4.30;;
70312;SDS011;57723;51.698;5.344;2024-03-08T07:01:47;9.25;;;4.28;;
70312;SDS011;57723;51.698;5.344;2024-03-08T07:04:13;8.00;;;3.90;;
70312;SDS011;57723;51.698;5.344;2024-03-08T07:06:44;10.38;;;4.45;;
70312;SDS011;57723;51.698;5.344;2024-03-08T07:09:11;7.30;;;4.47;;
70312;SDS011;57723;51.698;5.344;2024-03-08T07:11:38;9.48;;;4.38;;
70312;SDS011;57723;51.698;5.344;2024-03-08T07:14:04;7.97;;;3.95;;
70312;SDS011;57723;51.698;5.344;2024-03-08T07:16:31;8.02;;;4.05;;
70312;SDS011;57723;51.698;5.344;2024-03-08T07:18:57;6.63;;;3.93;;
70312;SDS011;57723;51.698;5.344;2024-03-08T07:21:25;8.13;;;4.28;;
70312;SDS011;57723;51.698;5.344;2024-03-08T07:23:51;8.70;;;4.33;;
70312;SDS011;57723;51.698;5.344;2024-03-08T07:29:21;9.00;;;4.50;;
70312;SDS011;57723;51.698;5.344;2024-03-08T07:31:46;7.82;;;4.15;;
70312;SDS011;57723;51.698;5.344;2024-03-08T07:34:42;6.57;;;4.10;;
70312;SDS011;57723;51.698;5.344;2024-03-08T07:37:08;7.33;;;4.03;;
70312;SDS011;57723;51.698;5.344;2024-03-08T07:39:38;8.32;;;3.97;;
70312;SDS011;57723;51.698;5.344;2024-03-08T07:42:04;7.73;;;4.17;;
70312;SDS011;57723;51.698;5.344;2024-03-08T07:44:30;8.35;;;4.07;;
70312;SDS011;57723;51.698;5.344;2024-03-08T07:46:56;8.63;;;4.25;;
70312;SDS011;57723;51.698;5.344;2024-03-08T07:49:25;8.30;;;4.45;;
70312;SDS011;57723;51.698;5.344;2024-03-08T07:51:53;7.35;;;4.40;;
70312;SDS011;57723;51.698;5.344;2024-03-08T07:54:19;7.65;;;4.13;;
70312;SDS011;57723;51.698;5.344;2024-03-08T07:56:47;7.05;;;4.50;;
70312;SDS011;57723;51.698;5.344;2024-03-08T07:59:13;8.77;;;4.70;;
70312;SDS011;57723;51.698;5.344;2024-03-08T08:01:39;8.60;;;4.75;;
70312;SDS011;57723;51.698;5.344;2024-03-08T08:04:05;8.20;;;4.20;;
70312;SDS011;57723;51.698;5.344;2024-03-08T08:06:31;8.80;;;4.55;;
70312;SDS011;57723;51.698;5.344;2024-03-08T08:09:00;11.87;;;4.80;;
70312;SDS011;57723;51.698;5.344;2024-03-08T08:11:28;8.73;;;4.47;;
70312;SDS011;57723;51.698;5.344;2024-03-08T08:13:58;8.88;;;4.75;;
70312;SDS011;57723;51.698;5.344;2024-03-08T08:16:29;8.98;;;4.60;;
70312;SDS011;57723;51.698;5.344;2024-03-08T08:18:55;7.22;;;4.38;;
70312;SDS011;57723;51.698;5.344;2024-03-08T08:21:24;8.77;;;4.53;;
70312;SDS011;57723;51.698;5.344;2024-03-08T08:23:51;9.20;;;4.28;;
70312;SDS011;57723;51.698;5.344;2024-03-08T08:26:17;7.70;;;4.20;;
70312;SDS011;57723;51.698;5.344;2024-03-08T08:28:42;7.90;;;4.50;;
70312;SDS011;57723;51.698;5.344;2024-03-08T08:31:11;7.07;;;4.03;;
70312;SDS011;57723;51.698;5.344;2024-03-08T08:33:45;10.48;;;4.50;;
70312;SDS011;57723;51.698;5.344;2024-03-08T08:36:13;8.95;;;4.43;;
70312;SDS011;57723;51.698;5.344;2024-03-08T08:38:38;9.18;;;4.50;;
70312;SDS011;57723;51.698;5.344;2024-03-08T08:41:04;11.07;;;4.30;;
70312;SDS011;57723;51.698;5.344;2024-03-08T08:43:34;13.68;;;4.47;;
70312;SDS011;57723;51.698;5.344;2024-03-08T08:45:59;6.90;;;4.07;;
70312;SDS011;57723;51.698;5.344;2024-03-08T08:48:29;9.50;;;4.68;;
70312;SDS011;57723;51.698;5.344;2024-03-08T08:50:56;7.13;;;4.00;;
70312;SDS011;57723;51.698;5.344;2024-03-08T08:53:22;8.60;;;4.68;;
70312;SDS011;57723;51.698;5.344;2024-03-08T08:55:48;6.90;;;4.18;;
70312;SDS011;57723;51.698;5.344;2024-03-08T08:58:13;8.43;;;4.60;;
70312;SDS011;57723;51.698;5.344;2024-03-08T09:00:41;7.50;;;4.70;;
70312;SDS011;57723;51.698;5.344;2024-03-08T09:03:09;8.13;;;4.75;;
70312;SDS011;57723;51.698;5.344;2024-03-08T09:05:37;8.48;;;4.78;;
70312;SDS011;57723;51.698;5.344;2024-03-08T09:08:03;7.87;;;4.10;;
70312;SDS011;57723;51.698;5.344;2024-03-08T09:10:38;9.35;;;4.70;;
70312;SDS011;57723;51.698;5.344;2024-03-08T09:13:04;7.07;;;4.27;;
70312;SDS011;57723;51.698;5.344;2024-03-08T09:15:36;8.60;;;4.68;;
70312;SDS011;57723;51.698;5.344;2024-03-08T09:18:04;6.95;;;4.13;;
70312;SDS011;57723;51.698;5.344;2024-03-08T09:20:31;8.15;;;4.60;;
70312;SDS011;57723;51.698;5.344;2024-03-08T09:22:56;7.83;;;4.40;;
70312;SDS011;57723;51.698;5.344;2024-03-08T09:25:22;7.88;;;4.20;;
70312;SDS011;57723;51.698;5.344;2024-03-08T09:27:47;7.53;;;4.80;;
70312;SDS011;57723;51.698;5.344;2024-03-08T09:30:18;10.20;;;4.55;;
70312;SDS011;57723;51.698;5.344;2024-03-08T09:32:43;6.75;;;4.28;;
70312;SDS011;57723;51.698;5.344;2024-03-08T09:35:09;8.45;;;4.43;;
70312;SDS011;57723;51.698;5.344;2024-03-08T09:37:36;8.75;;;4.60;;
70312;SDS011;57723;51.698;5.344;2024-03-08T09:40:02;9.67;;;4.27;;
70312;SDS011;57723;51.698;5.344;2024-03-08T09:42:34;7.90;;;4.60;;
70312;SDS011;57723;51.698;5.344;2024-03-08T09:45:05;9.55;;;4.47;;
70312;SDS011;57723;51.698;5.344;2024-03-08T09:47:35;7.47;;;4.60;;
70312;SDS011;57723;51.698;5.344;2024-03-08T09:50:04;7.50;;;4.38;;
70312;SDS011;57723;51.698;5.344;2024-03-08T09:52:33;8.73;;;4.50;;
70312;SDS011;57723;51.698;5.344;2024-03-08T09:55:00;7.68;;;4.30;;
70312;SDS011;57723;51.698;5.344;2024-03-08T09:57:43;8.02;;;4.40;;
70312;SDS011;57723;51.698;5.344;2024-03-08T10:00:32;8.85;;;4.70;;
70312;SDS011;57723;51.698;5.344;2024-03-08T10:03:00;7.30;;;4.40;;
70312;SDS011;57723;51.698;5.344;2024-03-08T10:05:28;8.32;;;4.80;;
70312;SDS011;57723;51.698;5.344;2024-03-08T10:07:55;6.88;;;4.53;;
70312;SDS011;57723;51.698;5.344;2024-03-08T10:10:20;6.65;;;4.25;;
70312;SDS011;57723;51.698;5.344;2024-03-08T10:12:46;7.57;;;4.25;;
70312;SDS011;57723;51.698;5.344;2024-03-08T10:15:15;8.57;;;4.30;;
70312;SDS011;57723;51.698;5.344;2024-03-08T10:17:41;10.00;;;4.55;;
70312;SDS011;57723;51.698;5.344;2024-03-08T10:20:15;8.48;;;4.18;;
70312;SDS011;57723;51.698;5.344;2024-03-08T10:22:44;7.65;;;4.25;;
70312;SDS011;57723;51.698;5.344;2024-03-08T10:25:10;8.40;;;4.32;;
70312;SDS011;57723;51.698;5.344;2024-03-08T10:27:37;8.38;;;4.55;;
70312;SDS011;57723;51.698;5.344;2024-03-08T10:30:04;7.70;;;4.68;;
70312;SDS011;57723;51.698;5.344;2024-03-08T10:32:30;8.55;;;4.47;;
70312;SDS011;57723;51.698;5.344;2024-03-08T10:34:59;7.40;;;4.65;;
70312;SDS011;57723;51.698;5.344;2024-03-08T10:37:28;7.55;;;4.72;;
70312;SDS011;57723;51.698;5.344;2024-03-08T10:40:15;9.70;;;4.53;;
70312;SDS011;57723;51.698;5.344;2024-03-08T10:45:38;7.82;;;4.60;;
70312;SDS011;57723;51.698;5.344;2024-03-08T10:48:29;7.00;;;4.20;;
70312;SDS011;57723;51.698;5.344;2024-03-08T10:51:07;6.90;;;4.20;;
70312;SDS011;57723;51.698;5.344;2024-03-08T10:53:33;7.30;;;4.25;;
70312;SDS011;57723;51.698;5.344;2024-03-08T10:56:01;7.55;;;4.50;;
70312;SDS011;57723;51.698;5.344;2024-03-08T10:58:27;7.13;;;4.38;;
70312;SDS011;57723;51.698;5.344;2024-03-08T11:00:59;7.28;;;4.30;;
70312;SDS011;57723;51.698;5.344;2024-03-08T11:03:43;8.00;;;4.72;;
70312;SDS011;57723;51.698;5.344;2024-03-08T11:06:17;6.25;;;4.43;;
70312;SDS011;57723;51.698;5.344;2024-03-08T11:08:44;6.65;;;4.20;;
70312;SDS011;57723;51.698;5.344;2024-03-08T11:11:32;9.80;;;4.75;;
70312;SDS011;57723;51.698;5.344;2024-03-08T11:13:55;7.15;;;4.47;;
70312;SDS011;57723;51.698;5.344;2024-03-08T11:18:56;7.05;;;3.85;;
70312;SDS011;57723;51.698;5.344;2024-03-08T11:21:25;7.90;;;4.65;;
70312;SDS011;57723;51.698;5.344;2024-03-08T11:24:08;7.47;;;4.65;;
70312;SDS011;57723;51.698;5.344;2024-03-08T11:26:36;8.57;;;4.47;;
70312;SDS011;57723;51.698;5.344;2024-03-08T11:31:48;6.95;;;3.95;;
70312;SDS011;57723;51.698;5.344;2024-03-08T11:34:17;6.47;;;4.30;;
70312;SDS011;57723;51.698;5.344;2024-03-08T11:36:44;6.30;;;4.43;;
70312;SDS011;57723;51.698;5.344;2024-03-08T11:39:13;6.32;;;4.03;;
70312;SDS011;57723;51.698;5.344;2024-03-08T11:41:39;10.00;;;4.45;;
70312;SDS011;57723;51.698;5.344;2024-03-08T11:44:09;7.47;;;4.50;;
70312;SDS011;57723;51.698;5.344;2024-03-08T11:46:36;7.43;;;4.53;;
70312;SDS011;57723;51.698;5.344;2024-03-08T11:49:05;6.35;;;4.60;;
70312;SDS011;57723;51.698;5.344;2024-03-08T11:51:38;8.70;;;4.53;;
70312;SDS011;57723;51.698;5.344;2024-03-08T11:54:03;9.70;;;4.60;;
70312;SDS011;57723;51.698;5.344;2024-03-08T11:56:29;8.13;;;3.90;;
70312;SDS011;57723;51.698;5.344;2024-03-08T11:58:55;7.43;;;4.07;;
70312;SDS011;57723;51.698;5.344;2024-03-08T12:01:23;11.73;;;4.30;;
70312;SDS011;57723;51.698;5.344;2024-03-08T12:03:52;7.43;;;4.20;;
70312;SDS011;57723;51.698;5.344;2024-03-08T12:06:26;6.72;;;4.18;;
70312;SDS011;57723;51.698;5.344;2024-03-08T12:08:52;8.53;;;3.87;;
70312;SDS011;57723;51.698;5.344;2024-03-08T12:11:19;12.43;;;4.32;;
70312;SDS011;57723;51.698;5.344;2024-03-08T12:13:48;8.55;;;3.85;;
70312;SDS011;57723;51.698;5.344;2024-03-08T12:16:15;7.78;;;3.90;;
70312;SDS011;57723;51.698;5.344;2024-03-08T12:18:42;8.15;;;4.07;;
70312;SDS011;57723;51.698;5.344;2024-03-08T12:21:09;7.43;;;4.10;;
70312;SDS011;57723;51.698;5.344;2024-03-08T12:23:44;8.05;;;4.05;;
70312;SDS011;57723;51.698;5.344;2024-03-08T12:26:17;8.02;;;4.05;;
70312;SDS011;57723;51.698;5.344;2024-03-08T12:28:44;6.78;;;4.05;;
70312;SDS011;57723;51.698;5.344;2024-03-08T12:31:11;7.20;;;4.25;;
70312;SDS011;57723;51.698;5.344;2024-03-08T12:33:53;7.83;;;4.23;;
70312;SDS011;57723;51.698;5.344;2024-03-08T12:36:19;8.02;;;4.32;;
70312;SDS011;57723;51.698;5.344;2024-03-08T12:38:48;7.50;;;4.28;;
70312;SDS011;57723;51.698;5.344;2024-03-08T12:41:14;6.28;;;4.05;;
70312;SDS011;57723;51.698;5.344;2024-03-08T12:43:43;8.48;;;3.67;;
70312;SDS011;57723;51.698;5.344;2024-03-08T12:46:16;6.70;;;3.57;;
70312;SDS011;57723;51.698;5.344;2024-03-08T12:48:42;8.40;;;4.30;;
70312;SDS011;57723;51.698;5.344;2024-03-08T12:51:15;5.97;;;3.97;;
70312;SDS011;57723;51.698;5.344;2024-03-08T12:53:43;7.50;;;4.10;;
70312;SDS011;57723;51.698;5.344;2024-03-08T12:56:09;7.22;;;3.95;;
70312;SDS011;57723;51.698;5.344;2024-03-08T12:58:35;7.37;;;3.83;;
70312;SDS011;57723;51.698;5.344;2024-03-08T13:01:01;6.53;;;3.80;;
70312;SDS011;57723;51.698;5.344;2024-03-08T13:03:29;7.63;;;4.28;;
70312;SDS011;57723;51.698;5.344;2024-03-08T13:05:55;6.82;;;4.00;;
70312;SDS011;57723;51.698;5.344;2024-03-08T13:08:22;6.60;;;3.75;;
70312;SDS011;57723;51.698;5.344;2024-03-08T13:10:49;6.93;;;3.63;;
70312;SDS011;57723;51.698;5.344;2024-03-08T13:13:16;6.43;;;3.92;;
70312;SDS011;57723;51.698;5.344;2024-03-08T13:15:42;6.03;;;3.78;;
70312;SDS011;57723;51.698;5.344;2024-03-08T13:18:08;6.17;;;3.93;;
70312;SDS011;57723;51.698;5.344;2024-03-08T13:20:35;6.43;;;3.83;;
70312;SDS011;57723;51.698;5.344;2024-03-08T13:23:02;8.25;;;4.13;;
70312;SDS011;57723;51.698;5.344;2024-03-08T13:25:28;7.55;;;4.40;;
70312;SDS011;57723;51.698;5.344;2024-03-08T13:27:53;7.27;;;3.90;;
70312;SDS011;57723;51.698;5.344;2024-03-08T13:30:24;8.35;;;4.03;;
70312;SDS011;57723;51.698;5.344;2024-03-08T13:32:52;6.72;;;4.40;;
70312;SDS011;57723;51.698;5.344;2024-03-08T13:35:17;7.10;;;4.07;;
70312;SDS011;57723;51.698;5.344;2024-03-08T13:37:49;6.15;;;3.80;;
70312;SDS011;57723;51.698;5.344;2024-03-08T13:40:15;6.05;;;3.92;;
70312;SDS011;57723;51.698;5.344;2024-03-08T13:42:43;6.27;;;4.10;;
70312;SDS011;57723;51.698;5.344;2024-03-08T13:45:09;6.20;;;3.90;;
70312;SDS011;57723;51.698;5.344;2024-03-08T13:47:39;7.53;;;3.92;;
70312;SDS011;57723;51.698;5.344;2024-03-08T13:50:06;6.32;;;3.75;;
70312;SDS011;57723;51.698;5.344;2024-03-08T13:52:32;6.15;;;3.83;;
70312;SDS011;57723;51.698;5.344;2024-03-08T13:55:02;6.05;;;4.07;;
70312;SDS011;57723;51.698;5.344;2024-03-08T13:57:27;6.35;;;3.85;;
70312;SDS011;57723;51.698;5.344;2024-03-08T13:59:52;6.37;;;3.80;;
70312;SDS011;57723;51.698;5.344;2024-03-08T14:02:18;6.03;;;3.67;;
70312;SDS011;57723;51.698;5.344;2024-03-08T14:04:44;6.63;;;4.20;;
70312;SDS011;57723;51.698;5.344;2024-03-08T14:07:09;6.10;;;4.00;;
70312;SDS011;57723;51.698;5.344;2024-03-08T14:09:36;7.18;;;4.13;;
70312;SDS011;57723;51.698;5.344;2024-03-08T14:12:03;6.57;;;3.90;;
70312;SDS011;57723;51.698;5.344;2024-03-08T14:14:33;6.25;;;4.05;;
70312;SDS011;57723;51.698;5.344;2024-03-08T14:17:02;6.53;;;3.40;;
70312;SDS011;57723;51.698;5.344;2024-03-08T14:19:30;6.60;;;3.67;;
70312;SDS011;57723;51.698;5.344;2024-03-08T14:22:01;6.40;;;3.80;;
70312;SDS011;57723;51.698;5.344;2024-03-08T14:24:29;7.63;;;4.03;;
70312;SDS011;57723;51.698;5.344;2024-03-08T14:26:54;6.22;;;3.95;;
70312;SDS011;57723;51.698;5.344;2024-03-08T14:29:25;5.55;;;3.85;;
70312;SDS011;57723;51.698;5.344;2024-03-08T14:31:57;6.20;;;4.07;;
70312;SDS011;57723;51.698;5.344;2024-03-08T14:34:26;6.65;;;3.70;;
70312;SDS011;57723;51.698;5.344;2024-03-08T14:36:55;6.65;;;4.07;;
70312;SDS011;57723;51.698;5.344;2024-03-08T14:39:23;6.47;;;4.00;;
70312;SDS011;57723;51.698;5.344;2024-03-08T14:41:55;6.63;;;3.80;;
70312;SDS011;57723;51.698;5.344;2024-03-08T14:44:23;5.95;;;3.65;;
70312;SDS011;57723;51.698;5.344;2024-03-08T14:46:58;6.53;;;3.40;;
70312;SDS011;57723;51.698;5.344;2024-03-08T14:49:24;5.65;;;3.80;;
70312;SDS011;57723;51.698;5.344;2024-03-08T14:51:51;5.82;;;3.72;;
70312;SDS011;57723;51.698;5.344;2024-03-08T14:54:17;6.37;;;3.87;;
70312;SDS011;57723;51.698;5.344;2024-03-08T14:56:47;6.20;;;3.85;;
70312;SDS011;57723;51.698;5.344;2024-03-08T14:59:13;6.90;;;3.93;;